createdAt,value
2018-07-15T00:00:00.153Z,85.50
2018-07-15T00:02:28.378Z,84.50
2018-07-15T00:04:56.663Z,84.70
2018-07-15T00:07:24.872Z,84.90
2018-07-15T00:09:53.054Z,85.40
2018-07-15T00:12:21.233Z,85.40
2018-07-15T00:14:49.420Z,85.80
2018-07-15T00:17:17.617Z,86.10
2018-07-15T00:19:45.792Z,86.30
2018-07-15T00:22:13.989Z,86.50
2018-07-15T00:24:42.161Z,87.00
2018-07-15T00:27:10.344Z,87.30
2018-07-15T00:29:38.641Z,87.80
2018-07-15T00:32:07.003Z,88.80
2018-07-15T00:34:35.201Z,88.50
2018-07-15T00:37:03.388Z,88.80
2018-07-15T00:39:31.612Z,89.10
2018-07-15T00:41:59.804Z,89.60
2018-07-15T00:44:27.967Z,89.90
2018-07-15T00:46:56.192Z,90.00
2018-07-15T00:51:53.301Z,90.20
2018-07-15T00:54:21.488Z,90.30
2018-07-15T00:56:49.677Z,90.40
2018-07-15T00:59:17.928Z,90.50
2018-07-15T01:01:46.113Z,90.60
2018-07-15T01:04:14.342Z,90.80
2018-07-15T01:06:42.556Z,90.90
2018-07-15T01:09:11.363Z,90.90
2018-07-15T01:11:39.740Z,91.10
2018-07-15T01:14:08.434Z,91.20
2018-07-15T01:16:37.628Z,91.40
2018-07-15T01:19:05.936Z,91.50
2018-07-15T01:21:34.118Z,91.60
2018-07-15T01:24:02.312Z,91.80
2018-07-15T01:26:31.304Z,91.90
2018-07-15T01:28:59.504Z,92.00
2018-07-15T01:31:27.675Z,92.20
2018-07-15T01:33:55.879Z,92.20
2018-07-15T01:36:24.060Z,92.50
2018-07-15T01:38:52.251Z,92.40
2018-07-15T01:41:20.414Z,92.40
2018-07-15T01:43:48.581Z,92.50
2018-07-15T01:46:16.804Z,92.50
2018-07-15T01:48:44.982Z,92.60
2018-07-15T01:51:13.208Z,92.60
2018-07-15T01:53:41.404Z,92.70
2018-07-15T01:56:09.592Z,92.70
2018-07-15T01:58:37.804Z,92.90
2018-07-15T02:01:05.992Z,93.40
2018-07-15T02:03:34.204Z,93.10
2018-07-15T02:06:02.383Z,93.20
2018-07-15T02:08:30.616Z,93.20
2018-07-15T02:10:58.900Z,93.30
2018-07-15T02:13:27.101Z,93.40
2018-07-15T02:15:55.272Z,93.40
2018-07-15T02:18:23.451Z,93.50
2018-07-15T02:20:51.629Z,93.60
2018-07-15T02:23:19.820Z,93.70
2018-07-15T02:25:48.052Z,93.90
2018-07-15T02:28:16.228Z,93.90
2018-07-15T02:30:44.399Z,94.00
2018-07-15T02:33:12.594Z,94.00
2018-07-15T02:35:40.755Z,94.00
2018-07-15T02:38:08.935Z,94.10
2018-07-15T02:40:37.102Z,94.30
2018-07-15T02:43:05.314Z,94.20
2018-07-15T02:45:33.489Z,94.30
2018-07-15T02:48:01.675Z,94.40
2018-07-15T02:50:29.852Z,94.40
2018-07-15T02:52:58.032Z,94.40
2018-07-15T02:55:26.201Z,94.50
2018-07-15T02:57:54.404Z,94.50
2018-07-15T03:00:23.016Z,94.60
2018-07-15T03:02:51.764Z,94.70
2018-07-15T03:05:19.949Z,94.70
2018-07-15T03:07:48.110Z,94.70
2018-07-15T03:10:16.645Z,94.70
2018-07-15T03:12:44.933Z,94.70
2018-07-15T03:15:13.102Z,94.70
2018-07-15T03:17:41.261Z,94.80
2018-07-15T03:20:09.621Z,94.80
2018-07-15T03:22:37.818Z,94.90
2018-07-15T03:25:06.003Z,95.00
2018-07-15T03:27:34.207Z,95.10
2018-07-15T03:30:02.445Z,95.20
2018-07-15T03:32:30.620Z,95.30
2018-07-15T03:34:58.809Z,95.40
2018-07-15T03:37:26.972Z,95.40
2018-07-15T03:39:55.204Z,96.10
2018-07-15T03:42:23.780Z,95.70
2018-07-15T03:44:51.980Z,95.70
2018-07-15T03:47:20.152Z,95.70
2018-07-15T03:49:48.352Z,95.70
2018-07-15T03:52:16.590Z,95.80
2018-07-15T03:54:44.805Z,96.10
2018-07-15T03:57:12.980Z,96.30
2018-07-15T03:59:41.151Z,95.90
2018-07-15T04:02:09.445Z,95.90
2018-07-15T04:04:37.661Z,95.80
2018-07-15T04:07:05.828Z,95.90
2018-07-15T04:09:34.017Z,95.90
2018-07-15T04:12:02.196Z,95.90
2018-07-15T04:14:30.373Z,95.90
2018-07-15T04:16:58.689Z,96.00
2018-07-15T04:19:26.893Z,96.10
2018-07-15T04:21:55.073Z,96.60
2018-07-15T04:24:23.241Z,96.20
2018-07-15T04:26:52.021Z,96.30
2018-07-15T04:29:20.300Z,96.30
2018-07-15T04:31:48.502Z,96.30
2018-07-15T04:34:16.687Z,96.30
2018-07-15T04:36:44.873Z,96.40
2018-07-15T04:39:13.044Z,96.40
2018-07-15T04:41:42.276Z,96.40
2018-07-15T04:44:10.443Z,96.50
2018-07-15T04:46:38.780Z,96.50
2018-07-15T04:49:06.952Z,96.50
2018-07-15T04:51:35.253Z,96.50
2018-07-15T04:54:03.524Z,96.50
2018-07-15T04:58:59.678Z,96.50
2018-07-15T05:01:27.864Z,96.50
2018-07-15T05:03:56.091Z,96.40
2018-07-15T05:06:24.256Z,96.40
2018-07-15T05:08:52.424Z,96.30
2018-07-15T05:11:20.744Z,96.30
2018-07-15T05:13:48.858Z,96.20
2018-07-15T05:16:17.058Z,96.20
2018-07-15T05:18:45.220Z,96.00
2018-07-15T05:21:13.412Z,95.80
2018-07-15T05:23:41.647Z,95.70
2018-07-15T05:26:09.833Z,95.70
2018-07-15T05:28:38.000Z,95.90
2018-07-15T05:31:06.164Z,95.50
2018-07-15T05:33:34.421Z,95.30
2018-07-15T05:36:02.596Z,95.10
2018-07-15T05:38:30.763Z,94.90
2018-07-15T05:40:59.072Z,95.00
2018-07-15T05:43:27.229Z,94.60
2018-07-15T05:45:55.413Z,94.80
2018-07-15T05:48:23.596Z,94.70
2018-07-15T05:50:51.769Z,94.60
2018-07-15T05:53:19.953Z,94.30
2018-07-15T05:55:48.305Z,94.20
2018-07-15T05:58:16.468Z,94.10
2018-07-15T06:00:44.663Z,93.90
2018-07-15T06:03:12.853Z,94.00
2018-07-15T06:05:41.042Z,94.30
2018-07-15T06:08:09.226Z,93.80
2018-07-15T06:10:37.505Z,93.70
2018-07-15T06:13:05.624Z,93.60
2018-07-15T06:15:33.804Z,93.60
2018-07-15T06:18:02.046Z,93.60
2018-07-15T06:20:30.197Z,93.50
2018-07-15T06:22:58.416Z,93.30
2018-07-15T06:25:26.597Z,93.30
2018-07-15T06:27:54.875Z,92.80
2018-07-15T06:30:23.108Z,92.90
2018-07-15T06:32:51.278Z,92.40
2018-07-15T06:35:19.472Z,92.10
2018-07-15T06:37:47.633Z,91.90
2018-07-15T06:40:15.830Z,91.90
2018-07-15T06:42:44.008Z,91.80
2018-07-15T06:45:12.546Z,91.70
2018-07-15T06:47:40.699Z,91.50
2018-07-15T06:50:08.904Z,91.10
2018-07-15T06:52:37.068Z,90.70
2018-07-15T06:55:05.419Z,90.40
2018-07-15T06:57:33.611Z,90.30
2018-07-15T07:00:01.893Z,90.00
2018-07-15T07:02:30.072Z,90.20
2018-07-15T07:04:58.244Z,90.10
2018-07-15T07:07:26.505Z,88.40
2018-07-15T07:09:54.622Z,88.30
2018-07-15T07:12:22.914Z,87.80
2018-07-15T07:14:51.109Z,88.10
2018-07-15T07:17:19.803Z,87.60
2018-07-15T07:19:47.975Z,87.50
2018-07-15T07:22:16.152Z,87.40
2018-07-15T07:24:44.473Z,85.70
2018-07-15T07:27:12.705Z,84.80
2018-07-15T07:29:40.875Z,83.50
2018-07-15T07:32:09.057Z,83.10
2018-07-15T07:34:37.917Z,82.50
2018-07-15T07:37:06.105Z,82.30
2018-07-15T07:39:34.292Z,80.60
2018-07-15T07:42:02.491Z,80.20
2018-07-15T07:44:30.981Z,79.90
2018-07-15T07:46:59.251Z,78.80
2018-07-15T07:49:27.436Z,76.90
2018-07-15T07:51:55.615Z,76.80
2018-07-15T07:54:23.791Z,76.50
2018-07-15T07:56:52.052Z,74.00
2018-07-15T08:01:48.317Z,70.50
2018-07-15T08:04:16.537Z,70.60
2018-07-15T08:06:44.745Z,71.30
2018-07-15T08:09:12.920Z,68.10
2018-07-15T08:11:42.456Z,69.30
2018-07-15T08:14:10.625Z,68.10
2018-07-15T08:16:38.808Z,66.90
2018-07-15T08:19:07.168Z,67.30
2018-07-15T08:21:35.529Z,64.60
2018-07-15T08:24:03.737Z,64.30
2018-07-15T08:26:31.981Z,62.90
2018-07-15T08:31:28.154Z,64.70
2018-07-15T08:33:56.328Z,64.40
2018-07-15T08:36:24.568Z,63.50
2018-07-15T08:38:52.741Z,62.70
2018-07-15T08:41:20.978Z,62.70
2018-07-15T08:43:49.148Z,60.00
2018-07-15T08:46:17.358Z,61.00
2018-07-15T08:48:45.521Z,59.80
2018-07-15T08:51:13.724Z,60.00
2018-07-15T08:53:41.977Z,59.60
2018-07-15T08:58:38.101Z,58.70
2018-07-15T09:01:06.548Z,58.20
2018-07-15T09:03:34.765Z,57.40
2018-07-15T09:06:03.331Z,58.10
2018-07-15T09:08:31.491Z,59.90
2018-07-15T09:10:59.757Z,59.30
2018-07-15T09:13:27.968Z,57.90
2018-07-15T09:15:56.248Z,58.20
2018-07-15T09:18:24.464Z,58.90
2018-07-15T09:20:52.581Z,59.50
2018-07-15T09:23:20.783Z,59.60
2018-07-15T09:25:49.003Z,59.10
2018-07-15T09:28:17.191Z,58.30
2018-07-15T09:30:45.550Z,57.70
2018-07-15T09:33:14.189Z,58.00
2018-07-15T09:35:42.535Z,58.00
2018-07-15T09:38:10.736Z,57.30
2018-07-15T09:40:38.951Z,57.60
2018-07-15T09:43:07.159Z,57.60
2018-07-15T09:45:35.340Z,56.00
2018-07-15T09:48:03.536Z,56.60
2018-07-15T09:50:31.710Z,55.00
2018-07-15T09:52:59.927Z,54.50
2018-07-15T09:55:28.112Z,53.90
2018-07-15T09:57:56.299Z,53.40
2018-07-15T10:00:29.776Z,53.40
2018-07-15T10:02:58.008Z,52.80
2018-07-15T10:05:26.198Z,52.50
2018-07-15T10:07:54.577Z,51.90
2018-07-15T10:10:22.788Z,52.00
2018-07-15T10:15:18.971Z,49.70
2018-07-15T10:17:47.197Z,50.00
2018-07-15T10:20:15.373Z,49.30
2018-07-15T10:22:43.555Z,50.00
2018-07-15T10:25:11.719Z,50.20
2018-07-15T10:27:40.094Z,50.40
2018-07-15T10:30:08.261Z,50.20
2018-07-15T10:32:36.433Z,49.30
2018-07-15T10:35:04.801Z,47.70
2018-07-15T10:37:33.015Z,47.60
2018-07-15T10:40:01.186Z,47.20
2018-07-15T10:42:29.373Z,47.40
2018-07-15T10:44:57.664Z,47.40
2018-07-15T10:47:26.233Z,46.20
2018-07-15T10:49:54.724Z,45.40
2018-07-15T10:52:23.020Z,43.60
2018-07-15T10:54:51.365Z,43.10
2018-07-15T10:57:19.596Z,42.60
2018-07-15T11:02:16.822Z,44.20
2018-07-15T11:04:45.082Z,43.50
2018-07-15T11:07:13.533Z,43.60
2018-07-15T11:09:41.907Z,44.20
2018-07-15T11:12:10.120Z,43.00
2018-07-15T11:14:38.662Z,42.60
2018-07-15T11:19:37.099Z,41.90
2018-07-15T11:22:05.668Z,40.90
2018-07-15T11:24:33.952Z,40.70
2018-07-15T11:27:02.128Z,40.60
2018-07-15T11:29:30.354Z,40.90
2018-07-15T11:31:58.585Z,40.20
2018-07-15T11:34:26.750Z,39.30
2018-07-15T11:39:28.222Z,36.90
2018-07-15T11:41:56.463Z,38.10
2018-07-15T11:44:24.629Z,38.60
2018-07-15T11:46:52.955Z,41.10
2018-07-15T11:49:21.397Z,42.80
2018-07-15T11:51:49.660Z,44.00
2018-07-15T11:54:17.829Z,43.70
2018-07-15T11:56:46.013Z,44.20
2018-07-15T11:59:14.304Z,43.80
2018-07-15T12:01:42.528Z,44.70
2018-07-15T12:04:10.783Z,44.90
2018-07-15T12:06:40.013Z,44.90
2018-07-15T12:09:08.261Z,43.70
2018-07-15T12:11:36.885Z,43.70
2018-07-15T12:14:05.077Z,42.90
2018-07-15T12:16:33.396Z,42.90
2018-07-15T12:19:01.572Z,42.60
2018-07-15T12:21:29.833Z,42.30
2018-07-15T12:23:58.017Z,42.50
2018-07-15T12:26:26.198Z,41.80
2018-07-15T12:28:54.398Z,42.30
2018-07-15T12:31:22.760Z,42.70
2018-07-15T12:36:19.207Z,41.90
2018-07-15T12:38:47.532Z,41.50
2018-07-15T12:41:16.347Z,41.40
2018-07-15T12:43:44.792Z,41.50
2018-07-15T12:46:12.956Z,41.00
2018-07-15T12:48:41.128Z,41.10
2018-07-15T12:51:09.304Z,40.00
2018-07-15T12:53:37.480Z,40.60
2018-07-15T12:56:05.753Z,41.10
2018-07-15T12:58:33.949Z,40.40
2018-07-15T13:01:02.130Z,41.50
2018-07-15T13:03:30.368Z,40.60
2018-07-15T13:05:58.635Z,41.00
2018-07-15T13:08:26.946Z,40.90
2018-07-15T13:10:55.116Z,40.40
2018-07-15T13:13:23.426Z,41.00
2018-07-15T13:15:51.584Z,39.70
2018-07-15T13:18:20.101Z,39.20
2018-07-15T13:20:48.296Z,39.30
2018-07-15T13:23:16.496Z,39.20
2018-07-15T13:25:44.660Z,39.10
2018-07-15T13:28:12.876Z,38.70
2018-07-15T13:30:41.053Z,38.90
2018-07-15T13:33:09.370Z,38.70
2018-07-15T13:35:37.572Z,39.40
2018-07-15T13:38:05.784Z,39.00
2018-07-15T13:40:33.952Z,38.60
2018-07-15T13:43:02.128Z,39.30
2018-07-15T13:45:30.388Z,38.80
2018-07-15T13:47:59.171Z,39.10
2018-07-15T13:50:27.387Z,38.90
2018-07-15T13:52:55.559Z,38.40
2018-07-15T13:55:23.761Z,39.00
2018-07-15T13:57:51.945Z,37.50
2018-07-15T14:00:24.680Z,37.70
2018-07-15T14:02:59.828Z,38.00
2018-07-15T14:05:32.131Z,37.40
2018-07-15T14:08:05.039Z,37.60
2018-07-15T14:10:43.572Z,37.10
2018-07-15T14:13:17.538Z,36.80
2018-07-15T14:15:54.766Z,36.80
2018-07-15T14:18:28.944Z,37.10
2018-07-15T14:21:00.230Z,36.70
2018-07-15T14:23:33.945Z,37.40
2018-07-15T14:26:08.316Z,37.10
2018-07-15T14:28:46.231Z,36.80
2018-07-15T14:31:18.438Z,37.00
2018-07-15T14:33:46.609Z,37.00
2018-07-15T14:36:14.785Z,36.80
2018-07-15T14:38:42.952Z,37.30
2018-07-15T14:41:11.172Z,36.80
2018-07-15T14:43:39.409Z,37.00
2018-07-15T14:46:07.596Z,36.80
2018-07-15T14:48:36.251Z,37.50
2018-07-15T14:51:04.678Z,37.40
2018-07-15T14:53:32.860Z,37.60
2018-07-15T14:56:01.099Z,37.80
2018-07-15T14:58:29.404Z,37.90
2018-07-15T15:00:57.764Z,38.10
2018-07-15T15:03:25.955Z,37.90
2018-07-15T15:05:54.130Z,37.60
2018-07-15T15:08:22.537Z,37.60
2018-07-15T15:10:50.768Z,37.30
2018-07-15T15:13:19.045Z,37.40
2018-07-15T15:15:47.183Z,37.10
2018-07-15T15:18:20.860Z,37.10
2018-07-15T15:20:52.764Z,37.50
2018-07-15T15:23:21.212Z,37.30
2018-07-15T15:25:50.143Z,37.90
2018-07-15T15:28:18.397Z,37.90
2018-07-15T15:30:46.816Z,37.80
2018-07-15T15:33:15.461Z,36.90
2018-07-15T15:35:49.200Z,36.90
2018-07-15T15:38:21.270Z,37.10
2018-07-15T15:40:53.829Z,37.10
2018-07-15T15:43:22.281Z,37.40
2018-07-15T15:45:51.127Z,37.70
2018-07-15T15:48:20.093Z,37.70
2018-07-15T15:50:49.057Z,37.80
2018-07-15T15:53:23.895Z,37.10
2018-07-15T15:55:57.795Z,36.70
2018-07-15T15:58:31.020Z,37.80
2018-07-15T16:00:59.199Z,37.70
2018-07-15T16:03:27.892Z,37.40
2018-07-15T16:06:00.143Z,36.80
2018-07-15T16:08:32.294Z,36.50
2018-07-15T16:11:05.629Z,36.70
2018-07-15T16:13:39.660Z,37.50
2018-07-15T16:16:07.841Z,36.30
2018-07-15T16:18:36.108Z,36.70
2018-07-15T16:21:04.288Z,36.60
2018-07-15T16:23:32.620Z,36.70
2018-07-15T16:26:01.751Z,36.70
2018-07-15T16:28:30.304Z,36.20
2018-07-15T16:30:58.471Z,35.40
2018-07-15T16:33:26.776Z,35.30
2018-07-15T16:35:55.038Z,35.10
2018-07-15T16:41:16.036Z,35.30
2018-07-15T16:43:44.220Z,35.60
2018-07-15T16:46:12.448Z,34.70
2018-07-15T16:48:40.639Z,34.10
2018-07-15T16:53:38.486Z,33.50
2018-07-15T16:56:07.217Z,33.00
2018-07-15T16:58:35.489Z,31.70
2018-07-15T17:01:03.718Z,30.80
2018-07-15T17:03:32.275Z,30.50
2018-07-15T17:06:00.577Z,30.90
2018-07-15T17:08:28.802Z,31.40
2018-07-15T17:10:57.407Z,32.40
2018-07-15T17:13:25.598Z,33.20
2018-07-15T17:15:53.772Z,33.30
2018-07-15T17:18:21.996Z,33.40
2018-07-15T17:20:50.209Z,33.70
2018-07-15T17:23:18.396Z,34.20
2018-07-15T17:25:46.697Z,35.10
2018-07-15T17:28:15.161Z,34.90
2018-07-15T17:30:43.434Z,35.20
2018-07-15T17:33:11.589Z,35.50
2018-07-15T17:35:39.766Z,35.60
2018-07-15T17:38:08.775Z,35.90
2018-07-15T17:40:37.151Z,36.90
2018-07-15T17:43:05.310Z,36.60
2018-07-15T17:45:33.730Z,36.20
2018-07-15T17:48:01.973Z,36.40
2018-07-15T17:50:30.177Z,36.30
2018-07-15T17:52:58.414Z,36.30
2018-07-15T17:55:26.707Z,36.50
2018-07-15T17:57:54.902Z,37.00
2018-07-15T18:00:23.155Z,36.60
2018-07-15T18:02:51.371Z,37.30
2018-07-15T18:05:19.584Z,36.60
2018-07-15T18:07:47.765Z,37.00
2018-07-15T18:10:15.996Z,37.60
2018-07-15T18:12:44.317Z,37.40
2018-07-15T18:15:12.540Z,37.20
2018-07-15T18:17:40.810Z,37.30
2018-07-15T18:20:09.151Z,37.70
2018-07-15T18:22:37.384Z,37.60
2018-07-15T18:25:05.665Z,37.50
2018-07-15T18:27:33.926Z,37.50
2018-07-15T18:30:02.113Z,37.40
2018-07-15T18:32:30.316Z,37.20
2018-07-15T18:34:58.541Z,37.90
2018-07-15T18:37:26.753Z,38.20
2018-07-15T18:39:55.004Z,38.10
2018-07-15T18:42:23.221Z,38.10
2018-07-15T18:44:51.539Z,38.60
2018-07-15T18:47:19.672Z,38.70
2018-07-15T18:49:47.993Z,38.80
2018-07-15T18:52:16.216Z,39.20
2018-07-15T18:54:44.901Z,39.20
2018-07-15T18:57:13.335Z,39.30
2018-07-15T18:59:41.614Z,39.90
2018-07-15T19:02:10.131Z,40.00
2018-07-15T19:04:38.324Z,40.10
2018-07-15T19:07:06.732Z,40.00
2018-07-15T19:09:35.370Z,40.30
2018-07-15T19:12:04.037Z,40.70
2018-07-15T19:14:32.330Z,40.50
2018-07-15T19:17:00.577Z,40.70
2018-07-15T19:19:28.905Z,41.00
2018-07-15T19:21:57.147Z,41.00
2018-07-15T19:24:25.381Z,41.30
2018-07-15T19:26:53.584Z,41.30
2018-07-15T19:29:21.805Z,41.60
2018-07-15T19:31:50.009Z,41.80
2018-07-15T19:34:18.836Z,41.90
2018-07-15T19:36:47.308Z,42.30
2018-07-15T19:39:15.492Z,42.40
2018-07-15T19:41:43.906Z,42.70
2018-07-15T19:44:12.682Z,42.90
2018-07-15T19:46:41.006Z,43.40
2018-07-15T19:49:09.979Z,43.80
2018-07-15T19:51:38.666Z,44.80
2018-07-15T19:54:07.084Z,44.30
2018-07-15T19:56:35.402Z,44.50
2018-07-15T19:59:03.778Z,45.30
2018-07-15T20:01:33.119Z,45.10
2018-07-15T20:04:01.864Z,45.60
2018-07-15T20:06:30.118Z,45.80
2018-07-15T20:08:58.329Z,46.40
2018-07-15T20:11:27.005Z,46.00
2018-07-15T20:13:55.200Z,46.00
2018-07-15T20:16:23.419Z,46.40
2018-07-15T20:18:51.625Z,46.30
2018-07-15T20:21:25.749Z,46.40
2018-07-15T20:23:54.715Z,46.40
2018-07-15T20:26:22.959Z,46.30
2018-07-15T20:29:00.377Z,46.30
2018-07-15T20:31:28.650Z,47.10
2018-07-15T20:33:58.890Z,46.60
2018-07-15T20:36:27.082Z,46.80
2018-07-15T20:38:57.555Z,46.90
2018-07-15T20:41:25.956Z,46.80
2018-07-15T20:43:54.247Z,47.00
2018-07-15T20:46:23.531Z,47.00
2018-07-15T20:48:52.160Z,47.10
2018-07-15T20:51:20.627Z,47.90
2018-07-15T20:53:49.152Z,47.70
2018-07-15T20:56:18.791Z,48.10
2018-07-15T20:58:49.377Z,48.40
2018-07-15T21:01:18.785Z,48.70
2018-07-15T21:03:47.065Z,49.20
2018-07-15T21:06:15.260Z,49.20
2018-07-15T21:08:43.446Z,49.50
2018-07-15T21:13:33.775Z,49.80
2018-07-15T21:16:01.974Z,50.30
2018-07-15T21:18:30.162Z,50.60
2018-07-15T21:20:58.355Z,51.10
2018-07-15T21:30:55.996Z,52.50
2018-07-15T21:33:24.174Z,52.90
2018-07-15T21:35:52.388Z,53.20
2018-07-15T21:38:20.585Z,53.40
2018-07-15T21:40:48.808Z,53.70
2018-07-15T21:43:16.972Z,54.10
2018-07-15T21:45:45.162Z,54.90
2018-07-15T21:48:13.417Z,55.20
2018-07-15T21:50:41.588Z,55.90
2018-07-15T21:53:09.772Z,56.20
2018-07-15T21:55:38.065Z,56.30
2018-07-15T21:58:06.248Z,56.60
2018-07-15T22:00:34.517Z,56.80
2018-07-15T22:03:02.734Z,57.20
2018-07-15T22:05:32.360Z,57.20
2018-07-15T22:10:16.563Z,57.90
2018-07-15T22:12:44.947Z,57.80
2018-07-15T22:15:13.309Z,58.30
2018-07-15T22:17:41.573Z,58.40
2018-07-15T22:20:09.820Z,59.10
2018-07-15T22:22:37.987Z,59.50
2018-07-15T22:25:06.633Z,59.70
2018-07-15T22:27:35.111Z,60.00
2018-07-15T22:30:03.354Z,61.40
2018-07-15T22:32:31.624Z,61.90
2018-07-15T22:34:59.892Z,61.70
2018-07-15T22:37:28.176Z,62.10
2018-07-15T22:39:56.456Z,62.30
2018-07-15T22:42:24.854Z,62.70
2018-07-15T22:44:53.093Z,63.20
2018-07-15T22:47:21.900Z,63.50
2018-07-15T22:49:50.164Z,63.70
2018-07-15T22:52:18.459Z,64.40
2018-07-15T22:54:46.711Z,65.20
2018-07-15T22:57:14.908Z,65.50
2018-07-15T22:59:43.165Z,65.90
2018-07-15T23:02:11.623Z,66.00
2018-07-15T23:05:51.469Z,66.50
2018-07-15T23:08:19.958Z,67.30
2018-07-15T23:10:48.153Z,67.40
2018-07-15T23:13:16.912Z,67.70
2018-07-15T23:20:42.130Z,69.50
2018-07-15T23:23:10.840Z,69.80
2018-07-15T23:25:39.077Z,70.10
2018-07-15T23:28:08.419Z,70.50
2018-07-15T23:30:37.406Z,71.00
2018-07-15T23:33:05.990Z,71.10
2018-07-15T23:35:34.246Z,71.30
2018-07-15T23:38:02.827Z,71.50
2018-07-15T23:40:31.148Z,71.70
2018-07-15T23:42:59.914Z,72.20
2018-07-15T23:45:29.099Z,72.20
2018-07-15T23:47:57.499Z,72.60
2018-07-15T23:50:25.789Z,73.00
2018-07-15T23:52:54.151Z,73.40
2018-07-15T23:55:22.640Z,74.60
2018-07-15T23:57:50.837Z,74.70
